Terminal Aerodrome Forecast
Issued by NWS

Home | Current Version | Previous Version | Text Only | Print | Product List | Glossary On
Versions: 1 2 3 4 5 6 7 8 9 10 11 12
739
FTUS45 KABQ 091129
TAFAEG
TAF
KAEG 091129Z 0912/1012 VRB03KT P6SM FEW250
     FM092000 17006KT P6SM SCT200
     FM100300 29005KT P6SM SCT200=

USA.gov is the U.S. government's official web portal to all federal, state and local government web resources and services.